Weather at Delta Center Heliport #1

Public forecast

Using degrees Fahrenheit for public forecast. Weather courtesy of forecast.io.

Closest aviation weather report (METAR) to Delta Center Heliport #1

Closest report is Kennett Memorial Airport, 19.9 nm (36.8 km) SW. Retrieved 2021/07/28 00:35 UTC (7 minutes ago):

KTKX 280035Z AUTO 04004KT 8SM CLR 31/25 A2997 RMK AO2

Closest aviation forecast (TAF) to Delta Center Heliport #1

Closest forecast is Cape Girardeau Regional Airport, 49.0 nm (90.7 km) N. Retrieved 2021-07-28 00:39 UTC (3 minutes ago):

TAF KCGI 272336Z 2800/2824 VRB03KT P6SM FEW040 FEW250 FM280800 00000KT 3SM BR SKC TEMPO 2809/2812 1 1/2SM BR FM281300 VRB02KT P6SM SKC